sensor_id;sensor_type;location;lat;lon;timestamp;temperature;humidity
3648;DHT22;1840;48.892;15.312;2022-11-20T00:00:54;-2.70;97.60
3648;DHT22;1840;48.892;15.312;2022-11-20T00:03:23;-2.70;97.60
3648;DHT22;1840;48.892;15.312;2022-11-20T00:05:51;-2.70;97.50
3648;DHT22;1840;48.892;15.312;2022-11-20T00:08:19;-2.60;97.50
3648;DHT22;1840;48.892;15.312;2022-11-20T00:10:47;-2.60;97.30
3648;DHT22;1840;48.892;15.312;2022-11-20T00:13:17;-2.60;97.30
3648;DHT22;1840;48.892;15.312;2022-11-20T00:15:44;-2.60;97.40
3648;DHT22;1840;48.892;15.312;2022-11-20T00:18:12;-2.80;97.30
3648;DHT22;1840;48.892;15.312;2022-11-20T00:20:40;-2.80;97.80
3648;DHT22;1840;48.892;15.312;2022-11-20T00:23:08;-2.70;97.80
3648;DHT22;1840;48.892;15.312;2022-11-20T00:25:36;-2.70;97.60
3648;DHT22;1840;48.892;15.312;2022-11-20T00:28:04;-2.60;97.80
3648;DHT22;1840;48.892;15.312;2022-11-20T00:30:34;-2.60;97.60
3648;DHT22;1840;48.892;15.312;2022-11-20T00:33:02;-2.70;97.30
3648;DHT22;1840;48.892;15.312;2022-11-20T00:35:30;-2.70;97.70
3648;DHT22;1840;48.892;15.312;2022-11-20T00:37:58;-2.70;97.90
3648;DHT22;1840;48.892;15.312;2022-11-20T00:40:25;-2.70;97.50
3648;DHT22;1840;48.892;15.312;2022-11-20T00:42:53;-2.60;97.90
3648;DHT22;1840;48.892;15.312;2022-11-20T00:45:21;-2.70;97.50
3648;DHT22;1840;48.892;15.312;2022-11-20T00:47:51;-2.60;97.70
3648;DHT22;1840;48.892;15.312;2022-11-20T00:50:19;-2.60;97.80
3648;DHT22;1840;48.892;15.312;2022-11-20T00:52:46;-2.40;97.70
3648;DHT22;1840;48.892;15.312;2022-11-20T00:55:14;-2.50;97.30
3648;DHT22;1840;48.892;15.312;2022-11-20T00:57:42;-2.50;97.80
3648;DHT22;1840;48.892;15.312;2022-11-20T01:00:11;-2.40;97.70
3648;DHT22;1840;48.892;15.312;2022-11-20T01:02:39;-2.40;97.60
3648;DHT22;1840;48.892;15.312;2022-11-20T01:05:08;-2.50;97.70
3648;DHT22;1840;48.892;15.312;2022-11-20T01:07:36;-2.50;97.70
3648;DHT22;1840;48.892;15.312;2022-11-20T01:10:05;-2.40;97.60
3648;DHT22;1840;48.892;15.312;2022-11-20T01:12:33;-2.40;97.50
3648;DHT22;1840;48.892;15.312;2022-11-20T01:15:02;-2.40;97.50
3648;DHT22;1840;48.892;15.312;2022-11-20T01:17:31;-2.40;97.50
3648;DHT22;1840;48.892;15.312;2022-11-20T01:19:59;-2.40;97.50
3648;DHT22;1840;48.892;15.312;2022-11-20T01:22:28;-2.50;97.40
3648;DHT22;1840;48.892;15.312;2022-11-20T01:24:56;-2.40;97.40
3648;DHT22;1840;48.892;15.312;2022-11-20T01:27:24;-2.50;97.60
3648;DHT22;1840;48.892;15.312;2022-11-20T01:29:52;-2.60;97.50
3648;DHT22;1840;48.892;15.312;2022-11-20T01:32:26;-2.60;97.60
3648;DHT22;1840;48.892;15.312;2022-11-20T01:34:54;-2.60;97.70
3648;DHT22;1840;48.892;15.312;2022-11-20T01:37:22;-2.60;97.80
3648;DHT22;1840;48.892;15.312;2022-11-20T01:39:51;-2.50;97.90
3648;DHT22;1840;48.892;15.312;2022-11-20T01:42:19;-2.50;97.60
3648;DHT22;1840;48.892;15.312;2022-11-20T01:48:06;-2.50;97.80
3648;DHT22;1840;48.892;15.312;2022-11-20T01:50:35;-2.50;97.80
3648;DHT22;1840;48.892;15.312;2022-11-20T01:53:05;-2.50;97.70
3648;DHT22;1840;48.892;15.312;2022-11-20T01:55:38;-2.40;97.60
3648;DHT22;1840;48.892;15.312;2022-11-20T01:58:08;-2.50;97.70
3648;DHT22;1840;48.892;15.312;2022-11-20T02:00:36;-2.40;97.70
3648;DHT22;1840;48.892;15.312;2022-11-20T02:03:07;-2.50;97.80
3648;DHT22;1840;48.892;15.312;2022-11-20T02:05:38;-2.50;97.80
3648;DHT22;1840;48.892;15.312;2022-11-20T02:08:08;-2.50;97.80
3648;DHT22;1840;48.892;15.312;2022-11-20T02:10:37;-2.50;97.90
3648;DHT22;1840;48.892;15.312;2022-11-20T02:13:05;-2.40;97.80
3648;DHT22;1840;48.892;15.312;2022-11-20T02:15:51;-2.40;97.80
3648;DHT22;1840;48.892;15.312;2022-11-20T02:18:20;-2.40;97.80
3648;DHT22;1840;48.892;15.312;2022-11-20T02:20:50;-2.30;97.70
3648;DHT22;1840;48.892;15.312;2022-11-20T02:23:24;-2.30;97.70
3648;DHT22;1840;48.892;15.312;2022-11-20T02:25:57;-2.40;97.70
3648;DHT22;1840;48.892;15.312;2022-11-20T02:28:26;-2.30;97.90
3648;DHT22;1840;48.892;15.312;2022-11-20T02:30:55;-2.20;98.00
3648;DHT22;1840;48.892;15.312;2022-11-20T02:33:23;-2.20;97.90
3648;DHT22;1840;48.892;15.312;2022-11-20T02:35:51;-2.30;97.80
3648;DHT22;1840;48.892;15.312;2022-11-20T02:38:19;-2.50;97.80
3648;DHT22;1840;48.892;15.312;2022-11-20T02:40:47;-2.40;97.80
3648;DHT22;1840;48.892;15.312;2022-11-20T02:43:22;-2.40;97.90
3648;DHT22;1840;48.892;15.312;2022-11-20T02:45:51;-2.40;97.90
3648;DHT22;1840;48.892;15.312;2022-11-20T02:48:19;-2.30;97.90
3648;DHT22;1840;48.892;15.312;2022-11-20T02:50:49;-2.30;98.00
3648;DHT22;1840;48.892;15.312;2022-11-20T02:53:17;-2.30;97.90
3648;DHT22;1840;48.892;15.312;2022-11-20T02:55:45;-2.50;98.10
3648;DHT22;1840;48.892;15.312;2022-11-20T02:58:13;-2.50;98.00
3648;DHT22;1840;48.892;15.312;2022-11-20T03:00:42;-2.50;98.00
3648;DHT22;1840;48.892;15.312;2022-11-20T03:03:12;-2.40;98.00
3648;DHT22;1840;48.892;15.312;2022-11-20T03:05:41;-2.40;98.00
3648;DHT22;1840;48.892;15.312;2022-11-20T03:08:11;-2.50;98.10
3648;DHT22;1840;48.892;15.312;2022-11-20T03:10:42;-2.40;98.20
3648;DHT22;1840;48.892;15.312;2022-11-20T03:13:10;-2.30;97.90
3648;DHT22;1840;48.892;15.312;2022-11-20T03:15:38;-2.30;97.80
3648;DHT22;1840;48.892;15.312;2022-11-20T03:18:11;-2.30;97.80
3648;DHT22;1840;48.892;15.312;2022-11-20T03:20:40;-2.30;97.90
3648;DHT22;1840;48.892;15.312;2022-11-20T03:23:08;-2.30;98.00
3648;DHT22;1840;48.892;15.312;2022-11-20T03:25:36;-2.20;97.90
3648;DHT22;1840;48.892;15.312;2022-11-20T03:28:04;-2.20;97.90
3648;DHT22;1840;48.892;15.312;2022-11-20T03:30:32;-2.20;97.80
3648;DHT22;1840;48.892;15.312;2022-11-20T03:33:00;-2.40;97.90
3648;DHT22;1840;48.892;15.312;2022-11-20T03:35:29;-2.40;98.10
3648;DHT22;1840;48.892;15.312;2022-11-20T03:37:57;-2.40;98.00
3648;DHT22;1840;48.892;15.312;2022-11-20T03:40:25;-2.40;98.10
3648;DHT22;1840;48.892;15.312;2022-11-20T03:42:53;-2.50;98.30
3648;DHT22;1840;48.892;15.312;2022-11-20T03:45:21;-2.40;98.40
3648;DHT22;1840;48.892;15.312;2022-11-20T03:47:49;-2.50;98.10
3648;DHT22;1840;48.892;15.312;2022-11-20T03:50:18;-2.40;98.40
3648;DHT22;1840;48.892;15.312;2022-11-20T03:52:47;-2.40;98.20
3648;DHT22;1840;48.892;15.312;2022-11-20T03:55:15;-2.40;98.10
3648;DHT22;1840;48.892;15.312;2022-11-20T03:57:43;-2.40;98.30
3648;DHT22;1840;48.892;15.312;2022-11-20T04:00:14;-2.40;98.20
3648;DHT22;1840;48.892;15.312;2022-11-20T04:02:42;-2.50;98.40
3648;DHT22;1840;48.892;15.312;2022-11-20T04:05:10;-2.40;98.10
3648;DHT22;1840;48.892;15.312;2022-11-20T04:07:38;-2.50;98.50
3648;DHT22;1840;48.892;15.312;2022-11-20T04:10:08;-2.40;98.40
3648;DHT22;1840;48.892;15.312;2022-11-20T04:12:36;-2.60;98.20
3648;DHT22;1840;48.892;15.312;2022-11-20T04:15:04;-2.70;98.50
3648;DHT22;1840;48.892;15.312;2022-11-20T04:17:32;-2.50;98.90
3648;DHT22;1840;48.892;15.312;2022-11-20T04:20:00;-2.40;98.40
3648;DHT22;1840;48.892;15.312;2022-11-20T04:22:29;-2.30;98.10
3648;DHT22;1840;48.892;15.312;2022-11-20T04:24:57;-2.30;98.20
3648;DHT22;1840;48.892;15.312;2022-11-20T04:27:26;-2.30;98.10
3648;DHT22;1840;48.892;15.312;2022-11-20T04:29:54;-2.20;98.20
3648;DHT22;1840;48.892;15.312;2022-11-20T04:32:22;-2.30;98.00
3648;DHT22;1840;48.892;15.312;2022-11-20T04:34:50;-2.30;98.40
3648;DHT22;1840;48.892;15.312;2022-11-20T04:37:18;-2.30;98.20
3648;DHT22;1840;48.892;15.312;2022-11-20T04:39:46;-2.50;98.10
3648;DHT22;1840;48.892;15.312;2022-11-20T04:42:14;-2.70;98.40
3648;DHT22;1840;48.892;15.312;2022-11-20T04:44:58;-2.60;98.60
3648;DHT22;1840;48.892;15.312;2022-11-20T04:47:26;-2.70;98.20
3648;DHT22;1840;48.892;15.312;2022-11-20T04:49:54;-2.60;98.70
3648;DHT22;1840;48.892;15.312;2022-11-20T04:52:22;-2.60;98.50
3648;DHT22;1840;48.892;15.312;2022-11-20T04:54:50;-2.50;98.60
3648;DHT22;1840;48.892;15.312;2022-11-20T04:57:19;-2.70;98.30
3648;DHT22;1840;48.892;15.312;2022-11-20T04:59:47;-2.80;98.80
3648;DHT22;1840;48.892;15.312;2022-11-20T05:02:17;-2.80;98.60
3648;DHT22;1840;48.892;15.312;2022-11-20T05:04:45;-2.60;99.00
3648;DHT22;1840;48.892;15.312;2022-11-20T05:07:13;-2.50;98.80
3648;DHT22;1840;48.892;15.312;2022-11-20T05:09:41;-2.40;98.30
3648;DHT22;1840;48.892;15.312;2022-11-20T05:12:09;-2.30;98.30
3648;DHT22;1840;48.892;15.312;2022-11-20T05:14:37;-2.30;98.30
3648;DHT22;1840;48.892;15.312;2022-11-20T05:17:05;-2.30;98.20
3648;DHT22;1840;48.892;15.312;2022-11-20T05:19:35;-2.20;98.20
3648;DHT22;1840;48.892;15.312;2022-11-20T05:22:04;-2.20;98.20
3648;DHT22;1840;48.892;15.312;2022-11-20T05:24:32;-2.20;98.20
3648;DHT22;1840;48.892;15.312;2022-11-20T05:27:00;-2.20;98.30
3648;DHT22;1840;48.892;15.312;2022-11-20T05:29:28;-2.30;98.30
3648;DHT22;1840;48.892;15.312;2022-11-20T05:31:56;-2.40;98.20
3648;DHT22;1840;48.892;15.312;2022-11-20T05:34:24;-2.40;98.30
3648;DHT22;1840;48.892;15.312;2022-11-20T05:36:53;-2.40;98.40
3648;DHT22;1840;48.892;15.312;2022-11-20T05:39:21;-2.40;98.50
3648;DHT22;1840;48.892;15.312;2022-11-20T05:41:49;-2.40;98.10
3648;DHT22;1840;48.892;15.312;2022-11-20T05:44:38;-2.40;98.50
3648;DHT22;1840;48.892;15.312;2022-11-20T05:47:06;-2.50;98.50
3648;DHT22;1840;48.892;15.312;2022-11-20T05:49:34;-2.70;98.30
3648;DHT22;1840;48.892;15.312;2022-11-20T05:52:03;-2.70;99.00
3648;DHT22;1840;48.892;15.312;2022-11-20T05:54:32;-2.70;99.10
3648;DHT22;1840;48.892;15.312;2022-11-20T05:57:00;-2.50;98.90
3648;DHT22;1840;48.892;15.312;2022-11-20T05:59:30;-2.70;99.10
3648;DHT22;1840;48.892;15.312;2022-11-20T06:01:58;-2.60;98.80
3648;DHT22;1840;48.892;15.312;2022-11-20T06:04:26;-2.60;98.40
3648;DHT22;1840;48.892;15.312;2022-11-20T06:06:53;-2.70;98.90
3648;DHT22;1840;48.892;15.312;2022-11-20T06:09:23;-2.60;99.00
3648;DHT22;1840;48.892;15.312;2022-11-20T06:11:51;-2.70;98.50
3648;DHT22;1840;48.892;15.312;2022-11-20T06:14:19;-2.90;99.10
3648;DHT22;1840;48.892;15.312;2022-11-20T06:16:47;-2.80;99.20
3648;DHT22;1840;48.892;15.312;2022-11-20T06:19:15;-2.60;99.10
3648;DHT22;1840;48.892;15.312;2022-11-20T06:21:43;-2.50;98.70
3648;DHT22;1840;48.892;15.312;2022-11-20T06:24:11;-2.50;98.80
3648;DHT22;1840;48.892;15.312;2022-11-20T06:26:41;-2.50;98.80
3648;DHT22;1840;48.892;15.312;2022-11-20T06:29:09;-2.50;98.90
3648;DHT22;1840;48.892;15.312;2022-11-20T06:31:37;-2.50;98.70
3648;DHT22;1840;48.892;15.312;2022-11-20T06:34:05;-2.50;98.80
3648;DHT22;1840;48.892;15.312;2022-11-20T06:36:34;-2.60;98.60
3648;DHT22;1840;48.892;15.312;2022-11-20T06:39:02;-2.50;98.80
3648;DHT22;1840;48.892;15.312;2022-11-20T06:41:31;-2.50;98.80
3648;DHT22;1840;48.892;15.312;2022-11-20T06:44:00;-2.40;98.70
3648;DHT22;1840;48.892;15.312;2022-11-20T06:46:31;-2.40;98.70
3648;DHT22;1840;48.892;15.312;2022-11-20T06:48:59;-2.40;98.90
3648;DHT22;1840;48.892;15.312;2022-11-20T06:51:27;-2.40;98.80
3648;DHT22;1840;48.892;15.312;2022-11-20T06:53:54;-2.30;98.80
3648;DHT22;1840;48.892;15.312;2022-11-20T06:56:22;-2.40;99.20
3648;DHT22;1840;48.892;15.312;2022-11-20T06:58:50;-2.40;98.90
3648;DHT22;1840;48.892;15.312;2022-11-20T07:01:20;-2.30;99.30
3648;DHT22;1840;48.892;15.312;2022-11-20T07:03:49;-2.30;98.80
3648;DHT22;1840;48.892;15.312;2022-11-20T07:06:20;-2.40;98.80
3648;DHT22;1840;48.892;15.312;2022-11-20T07:08:50;-2.20;99.10
3648;DHT22;1840;48.892;15.312;2022-11-20T07:11:18;-2.20;98.80
3648;DHT22;1840;48.892;15.312;2022-11-20T07:13:46;-2.30;98.90
3648;DHT22;1840;48.892;15.312;2022-11-20T07:16:14;-2.20;98.90
3648;DHT22;1840;48.892;15.312;2022-11-20T07:18:43;-2.10;99.10
3648;DHT22;1840;48.892;15.312;2022-11-20T07:21:16;-1.90;99.00
3648;DHT22;1840;48.892;15.312;2022-11-20T07:23:44;-1.80;98.80
3648;DHT22;1840;48.892;15.312;2022-11-20T07:26:12;-1.90;99.00
3648;DHT22;1840;48.892;15.312;2022-11-20T07:28:43;-1.90;98.80
3648;DHT22;1840;48.892;15.312;2022-11-20T07:31:11;-2.20;98.80
3648;DHT22;1840;48.892;15.312;2022-11-20T07:33:46;-2.00;99.20
3648;DHT22;1840;48.892;15.312;2022-11-20T07:36:14;-1.80;99.10
3648;DHT22;1840;48.892;15.312;2022-11-20T07:38:43;-1.90;98.40
3648;DHT22;1840;48.892;15.312;2022-11-20T07:41:11;-2.10;98.70
3648;DHT22;1840;48.892;15.312;2022-11-20T07:43:39;-1.90;99.20
3648;DHT22;1840;48.892;15.312;2022-11-20T07:46:08;-1.70;99.10
3648;DHT22;1840;48.892;15.312;2022-11-20T07:48:36;-1.70;98.70
3648;DHT22;1840;48.892;15.312;2022-11-20T07:51:05;-1.80;98.70
3648;DHT22;1840;48.892;15.312;2022-11-20T07:53:33;-1.70;98.50
3648;DHT22;1840;48.892;15.312;2022-11-20T07:56:02;-1.80;99.10
3648;DHT22;1840;48.892;15.312;2022-11-20T07:58:30;-1.60;99.00
3648;DHT22;1840;48.892;15.312;2022-11-20T08:01:03;-1.50;99.50
3648;DHT22;1840;48.892;15.312;2022-11-20T08:03:31;-1.30;99.00
3648;DHT22;1840;48.892;15.312;2022-11-20T08:05:59;-1.20;99.00
3648;DHT22;1840;48.892;15.312;2022-11-20T08:08:29;-1.10;98.60
3648;DHT22;1840;48.892;15.312;2022-11-20T08:11:00;-1.10;98.50
3648;DHT22;1840;48.892;15.312;2022-11-20T08:13:42;-0.90;98.90
3648;DHT22;1840;48.892;15.312;2022-11-20T08:16:28;-1.20;97.50
3648;DHT22;1840;48.892;15.312;2022-11-20T08:18:56;-1.00;98.70
3648;DHT22;1840;48.892;15.312;2022-11-20T08:21:24;-1.20;97.80
3648;DHT22;1840;48.892;15.312;2022-11-20T08:23:53;-1.20;98.40
3648;DHT22;1840;48.892;15.312;2022-11-20T08:26:21;-1.20;98.40
3648;DHT22;1840;48.892;15.312;2022-11-20T08:28:53;-1.40;97.80
3648;DHT22;1840;48.892;15.312;2022-11-20T08:31:22;-1.40;98.40
3648;DHT22;1840;48.892;15.312;2022-11-20T08:33:51;-1.20;98.80
3648;DHT22;1840;48.892;15.312;2022-11-20T08:36:20;-1.10;98.60
3648;DHT22;1840;48.892;15.312;2022-11-20T08:38:49;-0.90;98.50
3648;DHT22;1840;48.892;15.312;2022-11-20T08:41:19;-1.00;98.10
3648;DHT22;1840;48.892;15.312;2022-11-20T08:43:55;-0.80;98.20
3648;DHT22;1840;48.892;15.312;2022-11-20T08:46:25;-0.60;97.80
3648;DHT22;1840;48.892;15.312;2022-11-20T08:48:53;-0.70;98.10
3648;DHT22;1840;48.892;15.312;2022-11-20T08:51:21;-0.70;97.50
3648;DHT22;1840;48.892;15.312;2022-11-20T08:53:49;-0.70;98.30
3648;DHT22;1840;48.892;15.312;2022-11-20T08:56:18;-0.90;98.00
3648;DHT22;1840;48.892;15.312;2022-11-20T08:58:46;-0.80;97.50
3648;DHT22;1840;48.892;15.312;2022-11-20T09:01:36;-0.70;97.60
3648;DHT22;1840;48.892;15.312;2022-11-20T09:04:05;-0.80;97.20
3648;DHT22;1840;48.892;15.312;2022-11-20T09:06:33;-0.80;97.40
3648;DHT22;1840;48.892;15.312;2022-11-20T09:09:02;-0.80;97.70
3648;DHT22;1840;48.892;15.312;2022-11-20T09:11:34;-0.80;97.50
3648;DHT22;1840;48.892;15.312;2022-11-20T09:14:03;-0.70;97.70
3648;DHT22;1840;48.892;15.312;2022-11-20T09:16:31;-0.70;97.80
3648;DHT22;1840;48.892;15.312;2022-11-20T09:18:59;-0.60;97.50
3648;DHT22;1840;48.892;15.312;2022-11-20T09:21:47;-0.70;97.50
3648;DHT22;1840;48.892;15.312;2022-11-20T09:24:15;-0.60;98.10
3648;DHT22;1840;48.892;15.312;2022-11-20T09:26:44;-0.50;98.20
3648;DHT22;1840;48.892;15.312;2022-11-20T09:29:12;-0.30;98.40
3648;DHT22;1840;48.892;15.312;2022-11-20T09:31:40;-0.40;97.70
3648;DHT22;1840;48.892;15.312;2022-11-20T09:34:08;-0.40;97.90
3648;DHT22;1840;48.892;15.312;2022-11-20T09:36:36;-0.40;97.60
3648;DHT22;1840;48.892;15.312;2022-11-20T09:39:04;-0.40;97.40
3648;DHT22;1840;48.892;15.312;2022-11-20T09:41:48;-0.30;97.80
3648;DHT22;1840;48.892;15.312;2022-11-20T09:44:33;-0.30;98.00
3648;DHT22;1840;48.892;15.312;2022-11-20T09:47:09;-0.30;98.00
3648;DHT22;1840;48.892;15.312;2022-11-20T09:49:57;-0.30;98.10
3648;DHT22;1840;48.892;15.312;2022-11-20T09:52:32;-0.40;97.70
3648;DHT22;1840;48.892;15.312;2022-11-20T09:55:07;-0.30;98.50
3648;DHT22;1840;48.892;15.312;2022-11-20T09:57:40;-0.30;98.20
3648;DHT22;1840;48.892;15.312;2022-11-20T10:00:11;-0.20;98.00
3648;DHT22;1840;48.892;15.312;2022-11-20T10:02:44;-0.30;98.10
3648;DHT22;1840;48.892;15.312;2022-11-20T10:05:18;-0.20;98.00
3648;DHT22;1840;48.892;15.312;2022-11-20T10:07:51;-0.20;98.00
3648;DHT22;1840;48.892;15.312;2022-11-20T10:10:31;-0.20;98.50
3648;DHT22;1840;48.892;15.312;2022-11-20T10:13:18;-0.20;98.50
3648;DHT22;1840;48.892;15.312;2022-11-20T10:15:59;-0.10;98.60
3648;DHT22;1840;48.892;15.312;2022-11-20T10:18:40;0.00;98.20
3648;DHT22;1840;48.892;15.312;2022-11-20T10:21:17;0.10;98.50
3648;DHT22;1840;48.892;15.312;2022-11-20T10:24:05;0.10;97.80
3648;DHT22;1840;48.892;15.312;2022-11-20T10:26:42;-0.10;97.90
3648;DHT22;1840;48.892;15.312;2022-11-20T10:29:13;0.10;98.30
3648;DHT22;1840;48.892;15.312;2022-11-20T10:31:45;0.10;98.20
3648;DHT22;1840;48.892;15.312;2022-11-20T10:34:19;0.00;98.50
3648;DHT22;1840;48.892;15.312;2022-11-20T10:36:53;0.10;98.20
3648;DHT22;1840;48.892;15.312;2022-11-20T10:39:28;0.20;98.50
3648;DHT22;1840;48.892;15.312;2022-11-20T10:41:59;0.10;98.20
3648;DHT22;1840;48.892;15.312;2022-11-20T10:44:31;0.30;98.30
3648;DHT22;1840;48.892;15.312;2022-11-20T10:47:22;0.30;97.90
3648;DHT22;1840;48.892;15.312;2022-11-20T10:49:53;0.20;97.70
3648;DHT22;1840;48.892;15.312;2022-11-20T10:52:27;0.20;98.10
3648;DHT22;1840;48.892;15.312;2022-11-20T10:55:01;0.40;98.30
3648;DHT22;1840;48.892;15.312;2022-11-20T10:57:53;0.10;97.60
3648;DHT22;1840;48.892;15.312;2022-11-20T11:00:24;0.20;98.80
3648;DHT22;1840;48.892;15.312;2022-11-20T11:02:53;0.30;98.50
3648;DHT22;1840;48.892;15.312;2022-11-20T11:05:31;0.50;98.20
3648;DHT22;1840;48.892;15.312;2022-11-20T11:08:00;0.50;97.80
3648;DHT22;1840;48.892;15.312;2022-11-20T11:10:35;0.70;97.90
3648;DHT22;1840;48.892;15.312;2022-11-20T11:13:04;0.60;98.10
3648;DHT22;1840;48.892;15.312;2022-11-20T11:15:39;0.80;97.90
3648;DHT22;1840;48.892;15.312;2022-11-20T11:18:09;0.80;97.80
3648;DHT22;1840;48.892;15.312;2022-11-20T11:20:38;0.80;98.30
3648;DHT22;1840;48.892;15.312;2022-11-20T11:23:31;0.90;98.10
3648;DHT22;1840;48.892;15.312;2022-11-20T11:26:01;1.00;97.90
3648;DHT22;1840;48.892;15.312;2022-11-20T11:28:29;0.90;97.90
3648;DHT22;1840;48.892;15.312;2022-11-20T11:30:59;0.90;97.70
3648;DHT22;1840;48.892;15.312;2022-11-20T11:33:29;0.90;97.70
3648;DHT22;1840;48.892;15.312;2022-11-20T11:35:59;0.80;97.80
3648;DHT22;1840;48.892;15.312;2022-11-20T11:38:32;0.80;98.50
3648;DHT22;1840;48.892;15.312;2022-11-20T11:41:02;0.80;98.40
3648;DHT22;1840;48.892;15.312;2022-11-20T11:43:33;1.00;98.40
3648;DHT22;1840;48.892;15.312;2022-11-20T11:46:29;0.90;98.30
3648;DHT22;1840;48.892;15.312;2022-11-20T11:49:00;0.90;98.70
3648;DHT22;1840;48.892;15.312;2022-11-20T11:51:34;0.80;98.30
3648;DHT22;1840;48.892;15.312;2022-11-20T11:54:13;0.70;98.20
3648;DHT22;1840;48.892;15.312;2022-11-20T11:56:43;0.70;98.20
3648;DHT22;1840;48.892;15.312;2022-11-20T11:59:17;0.70;98.50
3648;DHT22;1840;48.892;15.312;2022-11-20T12:01:56;0.80;98.60
3648;DHT22;1840;48.892;15.312;2022-11-20T12:04:38;0.80;98.50
3648;DHT22;1840;48.892;15.312;2022-11-20T12:07:11;0.80;99.00
3648;DHT22;1840;48.892;15.312;2022-11-20T12:10:02;0.90;98.80
3648;DHT22;1840;48.892;15.312;2022-11-20T12:12:34;0.90;99.10
3648;DHT22;1840;48.892;15.312;2022-11-20T12:15:06;0.90;98.90
3648;DHT22;1840;48.892;15.312;2022-11-20T12:17:38;0.80;99.10
3648;DHT22;1840;48.892;15.312;2022-11-20T12:20:11;0.90;98.80
3648;DHT22;1840;48.892;15.312;2022-11-20T12:22:44;0.90;98.70
3648;DHT22;1840;48.892;15.312;2022-11-20T12:25:20;0.80;98.40
3648;DHT22;1840;48.892;15.312;2022-11-20T12:28:08;0.80;98.50
3648;DHT22;1840;48.892;15.312;2022-11-20T12:30:51;0.80;98.60
3648;DHT22;1840;48.892;15.312;2022-11-20T12:33:43;0.80;98.80
3648;DHT22;1840;48.892;15.312;2022-11-20T12:36:23;0.90;99.30
3648;DHT22;1840;48.892;15.312;2022-11-20T12:39:30;0.90;98.70
3648;DHT22;1840;48.892;15.312;2022-11-20T12:42:14;0.80;99.00
3648;DHT22;1840;48.892;15.312;2022-11-20T12:45:21;0.80;99.00
3648;DHT22;1840;48.892;15.312;2022-11-20T12:48:21;0.80;98.80
3648;DHT22;1840;48.892;15.312;2022-11-20T12:51:09;0.80;99.10
3648;DHT22;1840;48.892;15.312;2022-11-20T12:53:51;1.00;99.30
3648;DHT22;1840;48.892;15.312;2022-11-20T12:56:30;1.00;99.60
3648;DHT22;1840;48.892;15.312;2022-11-20T12:59:19;1.10;99.20
3648;DHT22;1840;48.892;15.312;2022-11-20T13:01:55;1.00;99.20
3648;DHT22;1840;48.892;15.312;2022-11-20T13:04:38;1.10;99.30
3648;DHT22;1840;48.892;15.312;2022-11-20T13:07:13;1.10;99.30
3648;DHT22;1840;48.892;15.312;2022-11-20T13:09:44;1.10;99.20
3648;DHT22;1840;48.892;15.312;2022-11-20T13:12:16;1.10;99.10
3648;DHT22;1840;48.892;15.312;2022-11-20T13:14:52;1.30;99.20
3648;DHT22;1840;48.892;15.312;2022-11-20T13:17:30;1.20;99.10
3648;DHT22;1840;48.892;15.312;2022-11-20T13:20:02;1.20;99.20
3648;DHT22;1840;48.892;15.312;2022-11-20T13:22:44;1.20;99.20
3648;DHT22;1840;48.892;15.312;2022-11-20T13:25:23;1.20;99.30
3648;DHT22;1840;48.892;15.312;2022-11-20T13:27:52;1.20;99.20
3648;DHT22;1840;48.892;15.312;2022-11-20T13:30:21;1.00;99.20
3648;DHT22;1840;48.892;15.312;2022-11-20T13:32:52;0.80;99.70
3648;DHT22;1840;48.892;15.312;2022-11-20T13:35:29;0.90;99.60
3648;DHT22;1840;48.892;15.312;2022-11-20T13:38:06;0.90;99.90
3648;DHT22;1840;48.892;15.312;2022-11-20T13:40:37;1.10;99.70
3648;DHT22;1840;48.892;15.312;2022-11-20T13:43:16;1.00;99.50
3648;DHT22;1840;48.892;15.312;2022-11-20T13:45:55;0.90;99.90
3648;DHT22;1840;48.892;15.312;2022-11-20T13:48:26;0.70;99.90
3648;DHT22;1840;48.892;15.312;2022-11-20T13:51:14;0.50;99.90
3648;DHT22;1840;48.892;15.312;2022-11-20T13:54:07;0.40;99.90
3648;DHT22;1840;48.892;15.312;2022-11-20T13:56:47;0.30;99.90
3648;DHT22;1840;48.892;15.312;2022-11-20T13:59:31;0.30;99.90
3648;DHT22;1840;48.892;15.312;2022-11-20T14:02:02;0.50;99.90
3648;DHT22;1840;48.892;15.312;2022-11-20T14:04:33;0.60;99.90
3648;DHT22;1840;48.892;15.312;2022-11-20T14:07:05;0.80;99.90
3648;DHT22;1840;48.892;15.312;2022-11-20T14:09:35;0.90;99.90
3648;DHT22;1840;48.892;15.312;2022-11-20T14:12:04;0.80;99.90
3648;DHT22;1840;48.892;15.312;2022-11-20T14:14:48;0.60;99.90
3648;DHT22;1840;48.892;15.312;2022-11-20T14:17:19;0.40;99.90
3648;DHT22;1840;48.892;15.312;2022-11-20T14:19:49;0.40;99.90
3648;DHT22;1840;48.892;15.312;2022-11-20T14:22:19;0.40;99.90
3648;DHT22;1840;48.892;15.312;2022-11-20T14:25:01;0.40;99.90
3648;DHT22;1840;48.892;15.312;2022-11-20T14:27:33;0.40;99.90
3648;DHT22;1840;48.892;15.312;2022-11-20T14:30:02;0.70;99.90
3648;DHT22;1840;48.892;15.312;2022-11-20T14:32:31;0.90;99.90
3648;DHT22;1840;48.892;15.312;2022-11-20T14:35:03;0.80;99.90
3648;DHT22;1840;48.892;15.312;2022-11-20T14:37:37;0.80;99.90
3648;DHT22;1840;48.892;15.312;2022-11-20T14:40:26;0.90;99.90
3648;DHT22;1840;48.892;15.312;2022-11-20T14:42:55;0.90;99.90
3648;DHT22;1840;48.892;15.312;2022-11-20T14:45:24;0.80;99.90
3648;DHT22;1840;48.892;15.312;2022-11-20T14:47:55;0.80;99.90
3648;DHT22;1840;48.892;15.312;2022-11-20T14:50:26;0.80;99.90
3648;DHT22;1840;48.892;15.312;2022-11-20T14:52:56;1.00;99.90
3648;DHT22;1840;48.892;15.312;2022-11-20T14:55:30;0.90;99.90
3648;DHT22;1840;48.892;15.312;2022-11-20T14:58:00;0.90;99.90
3648;DHT22;1840;48.892;15.312;2022-11-20T15:00:29;0.80;99.90
3648;DHT22;1840;48.892;15.312;2022-11-20T15:02:58;0.70;99.90
3648;DHT22;1840;48.892;15.312;2022-11-20T15:05:43;0.80;99.90
3648;DHT22;1840;48.892;15.312;2022-11-20T15:08:13;0.70;99.90
3648;DHT22;1840;48.892;15.312;2022-11-20T15:10:47;0.60;99.90
3648;DHT22;1840;48.892;15.312;2022-11-20T15:13:18;0.50;99.90
3648;DHT22;1840;48.892;15.312;2022-11-20T15:15:50;0.40;99.90
3648;DHT22;1840;48.892;15.312;2022-11-20T15:18:20;0.30;99.90
3648;DHT22;1840;48.892;15.312;2022-11-20T15:20:49;0.40;99.90
3648;DHT22;1840;48.892;15.312;2022-11-20T15:23:18;0.60;99.90
3648;DHT22;1840;48.892;15.312;2022-11-20T15:25:48;0.50;99.90
3648;DHT22;1840;48.892;15.312;2022-11-20T15:28:19;0.40;99.90
3648;DHT22;1840;48.892;15.312;2022-11-20T15:30:49;0.30;99.90
3648;DHT22;1840;48.892;15.312;2022-11-20T15:33:17;0.20;99.90
3648;DHT22;1840;48.892;15.312;2022-11-20T15:35:45;0.20;99.90
3648;DHT22;1840;48.892;15.312;2022-11-20T15:38:13;0.40;99.90
3648;DHT22;1840;48.892;15.312;2022-11-20T15:40:41;0.40;99.90
3648;DHT22;1840;48.892;15.312;2022-11-20T15:43:11;0.30;99.90
3648;DHT22;1840;48.892;15.312;2022-11-20T15:45:42;0.50;99.90
3648;DHT22;1840;48.892;15.312;2022-11-20T15:48:14;0.60;99.90
3648;DHT22;1840;48.892;15.312;2022-11-20T15:50:50;0.70;99.90
3648;DHT22;1840;48.892;15.312;2022-11-20T15:53:18;0.80;99.90
3648;DHT22;1840;48.892;15.312;2022-11-20T15:55:46;0.90;99.90
3648;DHT22;1840;48.892;15.312;2022-11-20T15:58:15;1.00;99.90
3648;DHT22;1840;48.892;15.312;2022-11-20T16:00:44;1.10;99.90
3648;DHT22;1840;48.892;15.312;2022-11-20T16:03:12;1.30;99.90
3648;DHT22;1840;48.892;15.312;2022-11-20T16:05:40;1.30;99.90
3648;DHT22;1840;48.892;15.312;2022-11-20T16:08:09;1.20;99.90
3648;DHT22;1840;48.892;15.312;2022-11-20T16:10:38;1.20;99.90
3648;DHT22;1840;48.892;15.312;2022-11-20T16:13:12;1.30;99.90
3648;DHT22;1840;48.892;15.312;2022-11-20T16:16:01;1.30;99.90
3648;DHT22;1840;48.892;15.312;2022-11-20T16:18:32;1.30;99.90
3648;DHT22;1840;48.892;15.312;2022-11-20T16:21:00;1.30;99.90
3648;DHT22;1840;48.892;15.312;2022-11-20T16:23:29;1.30;99.90